Rome, Georgia
Current Conditions -  °F | °C
As of 7:53 PM on Saturday 25 Oct 2014 (Local Time) from KRMG Reporting Station
Broken Clouds Broken Clouds  
Wind Chill: 66°   Ceiling: 6000
Heat Index: 66°   Visibility: 10mi
Dew Point: 56°   Wind: 3mph
Humidity: 70%   Direction: 260°W
Pressure: 30.02"   Gusts: NA
Location:  34.25°N, 85.17°W
Report Text: KRMG 252353Z AUTO 26003KT 10SM FEW050 BKN060 19/13 A3002 RMK AO2 SLP163 T01890133 10250 20189 53004
Loading
Personal Weather Stations






























Interactive Weather Map
Tropical Storm Tracking
New forecast layout! Learn more

10-Day Weather Forecast

Advertisements
Track Severe Weather on mobile